Weather at Moorea Airport

Public forecast

Using degrees Celsius for public forecast. Weather courtesy of forecast.io.

Closest aviation weather report (METAR) to Moorea Airport

Closest report is Faa'a International Airport, 9.7 nm (17.9 km) ESE. Retrieved 2021/07/24 19:00 UTC (15 minutes ago):

NTAA 241900Z 01003KT 9999 FEW023 26/19 Q1017 NOSIG

Closest aviation forecast (TAF) to Moorea Airport

Closest forecast is Faa'a International Airport, 9.7 nm (17.9 km) ESE. Retrieved 2021/07/24 18:05 UTC (1 hour ago):

TAF NTAA 241700Z 2418/2524 VRB05KT 9999 FEW023 BECMG 2421/2423 05012KT